createdAt,value
2022-12-18T00:02:41.307Z,15.32
2022-12-18T00:05:50.665Z,19.47
2022-12-18T00:08:52.328Z,16.98
2022-12-18T00:11:53.983Z,17.63
2022-12-18T00:14:55.557Z,19.33
2022-12-18T00:17:57.199Z,17.92
2022-12-18T00:21:04.811Z,18.15
2022-12-18T00:24:06.876Z,14.60
2022-12-18T00:27:08.546Z,17.10
2022-12-18T00:30:11.015Z,17.17
2022-12-18T00:33:13.151Z,18.13
2022-12-18T00:36:18.477Z,18.85
2022-12-18T00:39:20.125Z,18.15
2022-12-18T00:42:40.939Z,15.50
2022-12-18T00:45:42.628Z,16.20
2022-12-18T00:48:46.455Z,18.17
2022-12-18T00:51:49.370Z,13.98
2022-12-18T00:54:51.084Z,16.50
2022-12-18T00:57:53.600Z,13.23
2022-12-18T01:00:55.200Z,15.63
2022-12-18T01:03:56.933Z,14.13
2022-12-18T01:06:58.548Z,17.23
2022-12-18T01:10:00.307Z,16.52
2022-12-18T01:13:01.891Z,15.43
2022-12-18T01:16:03.612Z,17.70
2022-12-18T01:19:05.335Z,17.52
2022-12-18T01:22:07.260Z,18.65
2022-12-18T01:25:09.632Z,13.77
2022-12-18T01:28:11.269Z,15.60
2022-12-18T01:31:23.188Z,16.25
2022-12-18T01:34:25.096Z,16.10
2022-12-18T01:37:26.712Z,16.05
2022-12-18T01:40:28.326Z,15.88
2022-12-18T01:44:28.448Z,16.15
2022-12-18T01:47:35.769Z,14.52
2022-12-18T01:50:41.221Z,16.50
2022-12-18T01:53:44.648Z,13.88
2022-12-18T01:56:46.343Z,16.13
2022-12-18T01:59:53.559Z,13.93
2022-12-18T02:02:55.732Z,16.08
2022-12-18T02:06:12.493Z,14.32
2022-12-18T02:09:24.152Z,14.65
2022-12-18T02:12:49.206Z,15.45
2022-12-18T02:16:03.137Z,18.05
2022-12-18T02:19:16.788Z,15.27
2022-12-18T02:22:51.205Z,16.88
2022-12-18T02:26:23.929Z,14.48
2022-12-18T02:29:32.596Z,16.02
2022-12-18T02:32:46.105Z,17.05
2022-12-18T02:35:51.902Z,15.48
2022-12-18T02:38:57.444Z,17.33
2022-12-18T02:42:00.583Z,14.30
2022-12-18T02:45:02.383Z,14.68
2022-12-18T02:48:05.045Z,15.35
2022-12-18T02:51:29.729Z,15.00
2022-12-18T02:54:44.781Z,15.10
2022-12-18T02:58:21.586Z,14.30
2022-12-18T03:01:40.241Z,14.20
2022-12-18T03:05:08.077Z,13.15
2022-12-18T03:08:17.147Z,14.65
2022-12-18T03:11:40.628Z,14.00
2022-12-18T03:14:46.113Z,15.52
2022-12-18T03:18:05.617Z,14.15
2022-12-18T03:21:11.743Z,13.52
2022-12-18T03:24:16.983Z,16.05
2022-12-18T03:27:23.437Z,14.82
2022-12-18T03:30:30.695Z,15.93
2022-12-18T03:33:55.697Z,15.80
2022-12-18T03:37:04.168Z,12.98
2022-12-18T03:40:07.722Z,12.88
2022-12-18T03:43:19.851Z,16.13
2022-12-18T03:46:24.448Z,14.35
2022-12-18T03:49:34.411Z,15.73
2022-12-18T03:52:41.274Z,14.80
2022-12-18T03:55:45.880Z,17.33
2022-12-18T03:58:50.818Z,14.65
2022-12-18T04:01:59.882Z,15.50
2022-12-18T04:05:05.927Z,12.80
2022-12-18T04:08:09.433Z,14.48
2022-12-18T04:11:14.833Z,14.40
2022-12-18T04:14:18.588Z,13.02
2022-12-18T04:17:24.789Z,15.40
2022-12-18T04:20:26.911Z,16.15
2022-12-18T04:23:29.294Z,13.35
2022-12-18T04:26:33.551Z,15.93
2022-12-18T04:30:02.023Z,16.08
2022-12-18T04:33:10.719Z,18.48
2022-12-18T04:36:14.089Z,16.27
2022-12-18T04:39:16.702Z,15.65
2022-12-18T04:42:19.308Z,16.50
2022-12-18T04:45:20.888Z,16.70
2022-12-18T04:48:22.518Z,14.43
2022-12-18T04:51:26.622Z,16.02
2022-12-18T04:54:28.556Z,15.80
2022-12-18T04:57:31.023Z,15.02
2022-12-18T05:00:32.655Z,15.90
2022-12-18T05:03:34.734Z,13.55
2022-12-18T05:06:36.410Z,15.18
2022-12-18T05:09:37.980Z,14.95
2022-12-18T05:12:58.999Z,17.30
2022-12-18T05:16:03.762Z,14.82
2022-12-18T05:19:05.461Z,14.48
2022-12-18T05:22:07.138Z,15.00
2022-12-18T05:25:09.965Z,12.95
2022-12-18T05:28:12.944Z,14.63
2022-12-18T05:31:15.317Z,15.50
2022-12-18T05:34:17.016Z,13.98
2022-12-18T05:37:18.644Z,13.98
2022-12-18T05:40:20.283Z,14.77
2022-12-18T05:43:23.131Z,14.38
2022-12-18T05:46:25.392Z,16.63
2022-12-18T05:49:27.425Z,15.23
2022-12-18T05:52:29.083Z,15.27
2022-12-18T05:55:34.476Z,14.63
2022-12-18T05:58:36.762Z,12.50
2022-12-18T06:01:38.577Z,15.05
2022-12-18T06:04:40.431Z,13.82
2022-12-18T06:07:42.101Z,14.45
2022-12-18T06:10:52.217Z,16.17
2022-12-18T06:13:58.576Z,14.65
2022-12-18T06:17:00.858Z,13.05
2022-12-18T06:20:02.625Z,14.50
2022-12-18T06:23:04.276Z,14.75
2022-12-18T06:26:12.423Z,15.27
2022-12-18T06:29:14.095Z,14.95
2022-12-18T06:32:15.963Z,15.55
2022-12-18T06:35:17.721Z,14.68
2022-12-18T06:38:19.843Z,13.07
2022-12-18T06:41:22.309Z,14.10
2022-12-18T06:44:24.274Z,14.85
2022-12-18T06:47:25.972Z,14.45
2022-12-18T06:50:27.960Z,14.88
2022-12-18T06:53:30.557Z,16.92
2022-12-18T06:56:32.268Z,13.45
2022-12-18T06:59:34.159Z,13.60
2022-12-18T07:02:35.908Z,14.00
2022-12-18T07:05:41.891Z,12.50
2022-12-18T07:08:44.058Z,15.30
2022-12-18T07:11:45.748Z,12.77
2022-12-18T07:14:49.953Z,15.05
2022-12-18T07:17:52.773Z,17.65
2022-12-18T07:20:59.814Z,14.80
2022-12-18T07:24:11.687Z,14.10
2022-12-18T07:27:17.954Z,15.13
2022-12-18T07:30:19.786Z,14.32
2022-12-18T07:33:21.381Z,13.00
2022-12-18T07:36:23.107Z,16.17
2022-12-18T07:39:24.760Z,14.25
2022-12-18T07:42:32.228Z,14.63
2022-12-18T07:45:33.972Z,15.52
2022-12-18T07:48:35.783Z,19.17
2022-12-18T07:51:37.420Z,15.52
2022-12-18T07:54:39.941Z,20.00
2022-12-18T07:57:52.549Z,17.80
2022-12-18T08:01:03.772Z,13.45
2022-12-18T08:04:06.078Z,11.60
2022-12-18T08:07:07.763Z,14.82
2022-12-18T08:10:09.730Z,15.48
2022-12-18T08:13:11.435Z,13.85
2022-12-18T08:16:13.200Z,12.73
2022-12-18T08:19:17.352Z,13.63
2022-12-18T08:22:19.060Z,14.82
2022-12-18T08:25:20.653Z,11.63
2022-12-18T08:32:38.468Z,19.45
2022-12-18T08:35:45.601Z,18.55
2022-12-18T08:42:10.388Z,11.35
2022-12-18T08:45:12.358Z,14.82
2022-12-18T09:12:50.489Z,14.32
2022-12-18T09:16:20.656Z,13.13
2022-12-18T09:22:49.930Z,16.83
2022-12-18T09:29:40.174Z,19.13
2022-12-18T09:32:56.752Z,20.45
2022-12-18T09:35:58.571Z,23.25
2022-12-18T09:42:26.938Z,19.90
2022-12-18T09:45:31.532Z,19.13
2022-12-18T09:52:57.578Z,15.95
2022-12-18T09:56:01.996Z,18.25
2022-12-18T09:59:05.384Z,17.77
2022-12-18T10:02:19.713Z,14.73
2022-12-18T10:05:43.473Z,14.32
2022-12-18T10:08:59.116Z,17.90
2022-12-18T10:12:09.523Z,12.73
2022-12-18T10:15:32.980Z,14.23
2022-12-18T10:18:56.711Z,14.30
2022-12-18T10:22:27.571Z,13.90
2022-12-18T10:25:43.138Z,13.35
2022-12-18T10:29:06.243Z,14.52
2022-12-18T10:33:04.817Z,19.00
2022-12-18T10:36:31.678Z,13.63
2022-12-18T10:39:33.371Z,16.17
2022-12-18T10:42:35.085Z,46.90
2022-12-18T10:46:21.719Z,22.65
2022-12-18T10:53:57.563Z,14.82
2022-12-18T10:57:43.552Z,16.38
2022-12-18T11:17:24.392Z,16.02
2022-12-18T11:24:40.964Z,18.38
2022-12-18T11:27:52.998Z,19.85
2022-12-18T11:36:23.147Z,15.70
2022-12-18T11:40:22.151Z,17.13
2022-12-18T11:46:44.623Z,17.55
2022-12-18T11:49:50.108Z,19.85
2022-12-18T11:52:57.286Z,22.30
2022-12-18T11:56:04.442Z,21.92
2022-12-18T11:59:24.211Z,20.58
2022-12-18T12:02:58.081Z,22.23
2022-12-18T12:05:59.756Z,24.10
2022-12-18T12:09:30.959Z,23.98
2022-12-18T12:12:51.178Z,23.92
2022-12-18T12:16:07.726Z,19.92
2022-12-18T12:19:09.408Z,21.05
2022-12-18T12:22:36.442Z,21.70
2022-12-18T12:26:24.186Z,21.67
2022-12-18T12:29:43.707Z,22.58
2022-12-18T12:33:21.850Z,23.80
2022-12-18T12:39:44.786Z,20.25
2022-12-18T12:43:10.606Z,21.10
2022-12-18T12:46:18.779Z,20.23
2022-12-18T12:49:26.830Z,22.02
2022-12-18T12:52:28.535Z,22.63
2022-12-18T12:55:31.008Z,21.38
2022-12-18T12:58:51.900Z,25.55
2022-12-18T13:02:02.889Z,23.25
2022-12-18T13:05:21.445Z,22.67
2022-12-18T13:08:31.677Z,23.85
2022-12-18T13:12:00.515Z,25.02
2022-12-18T13:15:23.576Z,22.20
2022-12-18T13:18:26.357Z,21.95
2022-12-18T13:21:30.788Z,21.67
2022-12-18T13:25:29.318Z,24.48
2022-12-18T13:35:19.129Z,24.35
2022-12-18T13:38:31.881Z,24.92
2022-12-18T13:41:33.447Z,21.58
2022-12-18T13:44:40.361Z,21.33
2022-12-18T13:47:44.799Z,24.10
2022-12-18T13:51:19.159Z,27.40
2022-12-18T13:54:23.552Z,26.27
2022-12-18T13:57:29.404Z,29.33
2022-12-18T14:00:31.622Z,26.98
2022-12-18T14:03:33.353Z,26.50
2022-12-18T14:06:35.871Z,27.67
2022-12-18T14:09:43.474Z,28.30
2022-12-18T14:13:02.138Z,27.35
2022-12-18T14:16:08.466Z,25.23
2022-12-18T14:19:16.781Z,25.30
2022-12-18T14:22:22.067Z,26.30
2022-12-18T14:25:26.286Z,27.58
2022-12-18T14:28:28.704Z,21.80
2022-12-18T14:31:32.746Z,28.05
2022-12-18T14:34:34.509Z,23.63
2022-12-18T14:37:36.171Z,24.20
2022-12-18T14:40:38.183Z,24.15
2022-12-18T14:43:42.862Z,22.08
2022-12-18T14:46:53.235Z,22.05
2022-12-18T14:53:58.221Z,24.48
2022-12-18T15:01:14.918Z,22.33
2022-12-18T15:57:27.886Z,25.08
2022-12-18T16:00:52.529Z,24.27
2022-12-18T16:03:55.091Z,33.40
2022-12-18T16:07:29.152Z,45.58
2022-12-18T16:10:44.500Z,30.75
2022-12-18T16:14:08.074Z,32.45
2022-12-18T16:17:16.706Z,29.25
2022-12-18T16:20:23.499Z,30.73
2022-12-18T16:23:25.531Z,29.50
2022-12-18T16:26:27.273Z,30.80
2022-12-18T16:30:03.062Z,28.33
2022-12-18T16:33:04.894Z,30.83
2022-12-18T16:36:07.153Z,32.15
2022-12-18T16:39:36.113Z,28.88
2022-12-18T16:43:28.004Z,30.95
2022-12-18T16:46:30.685Z,25.92
2022-12-18T16:49:32.395Z,30.65
2022-12-18T16:52:42.842Z,29.55
2022-12-18T16:55:44.604Z,29.00
2022-12-18T16:59:05.020Z,31.85
2022-12-18T17:02:13.980Z,24.83
2022-12-18T17:05:17.994Z,32.83
2022-12-18T17:08:20.662Z,37.22
2022-12-18T17:11:26.385Z,35.53
2022-12-18T17:18:45.799Z,34.10
2022-12-18T17:21:50.552Z,34.42
2022-12-18T17:24:52.133Z,28.38
2022-12-18T17:28:01.084Z,32.25
2022-12-18T17:31:12.801Z,33.53
2022-12-18T17:34:15.237Z,30.00
2022-12-18T17:37:17.171Z,35.78
2022-12-18T17:40:18.940Z,35.05
2022-12-18T17:43:20.757Z,35.13
2022-12-18T17:46:24.703Z,29.63
2022-12-18T17:49:26.509Z,35.05
2022-12-18T17:52:28.249Z,32.00
2022-12-18T17:55:30.291Z,29.40
2022-12-18T17:58:34.594Z,31.30
2022-12-18T18:01:43.738Z,32.92
2022-12-18T18:04:46.602Z,29.85
2022-12-18T18:07:53.084Z,33.85
2022-12-18T18:11:24.154Z,32.70
2022-12-18T18:14:27.659Z,30.90
2022-12-18T18:17:30.621Z,30.38
2022-12-18T18:23:48.998Z,30.60
2022-12-18T18:26:59.814Z,29.60
2022-12-18T18:30:03.762Z,34.63
2022-12-18T18:33:11.711Z,30.70
2022-12-18T18:36:14.431Z,34.88
2022-12-18T18:39:17.427Z,40.65
2022-12-18T18:42:19.788Z,28.23
2022-12-18T18:45:22.625Z,32.90
2022-12-18T18:48:25.708Z,25.55
2022-12-18T18:51:35.006Z,31.70
2022-12-18T18:54:51.945Z,32.05
2022-12-18T18:58:08.400Z,33.17
2022-12-18T19:01:21.460Z,31.80
2022-12-18T19:04:25.465Z,29.33
2022-12-18T19:07:30.656Z,29.67
2022-12-18T19:10:40.799Z,41.03
2022-12-18T19:14:05.579Z,34.15
2022-12-18T19:17:16.180Z,31.52
2022-12-18T19:20:18.373Z,28.38
2022-12-18T19:23:47.752Z,35.13
2022-12-18T19:27:00.142Z,31.65
2022-12-18T19:30:24.113Z,28.00
2022-12-18T19:33:44.824Z,31.73
2022-12-18T19:37:39.324Z,33.25
2022-12-18T19:40:51.172Z,32.38
2022-12-18T19:47:41.796Z,28.40
2022-12-18T19:51:07.797Z,31.88
2022-12-18T19:54:16.224Z,31.77
2022-12-18T19:57:31.972Z,32.97
2022-12-18T20:00:36.935Z,33.03
2022-12-18T20:03:38.941Z,31.65
2022-12-18T20:06:52.383Z,35.10
2022-12-18T20:10:01.470Z,29.52
2022-12-18T20:13:07.146Z,32.97
2022-12-18T20:16:09.125Z,35.45
2022-12-18T20:19:12.176Z,32.65
2022-12-18T20:22:14.095Z,35.63
2022-12-18T20:25:19.314Z,32.72
2022-12-18T20:28:24.003Z,31.83
2022-12-18T20:31:26.306Z,31.67
2022-12-18T20:34:31.005Z,36.53
2022-12-18T20:37:55.831Z,34.35
2022-12-18T20:41:04.090Z,27.75
2022-12-18T20:44:21.835Z,29.75
2022-12-18T20:48:03.592Z,31.75
2022-12-18T20:51:28.001Z,31.48
2022-12-18T20:55:24.072Z,31.05
2022-12-18T20:59:30.542Z,33.90
2022-12-18T21:03:13.501Z,31.83
2022-12-18T21:06:19.216Z,30.38
2022-12-18T21:09:21.495Z,41.38
2022-12-18T21:13:07.237Z,39.50
2022-12-18T21:16:00.350Z,35.10
2022-12-18T21:31:39.340Z,33.67
2022-12-18T21:34:47.514Z,33.90
2022-12-18T21:38:16.951Z,32.63
2022-12-18T21:46:11.679Z,32.35
2022-12-18T21:50:05.209Z,32.03
2022-12-18T21:53:32.823Z,29.95
2022-12-18T21:57:05.759Z,33.63
2022-12-18T22:04:16.112Z,30.70
2022-12-18T22:12:48.925Z,28.77
2022-12-18T22:15:58.518Z,36.20
2022-12-18T22:19:07.035Z,31.73
2022-12-18T22:25:28.118Z,32.50
2022-12-18T22:29:02.202Z,35.10
2022-12-18T22:32:16.534Z,33.58
2022-12-18T22:35:32.697Z,34.47
2022-12-18T22:38:35.080Z,31.27
2022-12-18T22:42:12.184Z,31.92
2022-12-18T22:45:52.869Z,37.72
2022-12-18T22:49:02.711Z,28.63
2022-12-18T22:52:09.760Z,34.13
2022-12-18T22:55:22.180Z,32.38
2022-12-18T22:58:25.217Z,32.08
2022-12-18T23:01:34.121Z,36.85
2022-12-18T23:04:54.930Z,32.58
2022-12-18T23:07:59.323Z,43.13
2022-12-18T23:14:27.572Z,32.20
2022-12-18T23:17:32.224Z,31.15
2022-12-18T23:21:48.181Z,32.30
2022-12-18T23:25:33.147Z,30.20
2022-12-18T23:29:04.069Z,34.20
2022-12-18T23:32:05.829Z,30.30
2022-12-18T23:35:44.796Z,27.80
2022-12-18T23:38:51.486Z,25.40
2022-12-18T23:41:53.116Z,33.92
2022-12-18T23:44:54.973Z,29.20
2022-12-18T23:48:19.420Z,29.77
2022-12-18T23:51:32.320Z,26.05
2022-12-18T23:54:35.543Z,34.67
2022-12-18T23:57:37.317Z,36.33
